Pagrindinis puslapis
METAR-TAF:

METAR-TAF

Oro uostai :

Kašijas do Sulas, Pietų Rio Grandė, Brazilija

platuma: 29-11-44S, ilguma: 051-11-23W, Aukštis: 754 m

Dabartinis oras

Ataskaita buvo paskelbta 34 minutes, ne 20:00 UTC
Vėjas 10 kt iš Šiaurės/Šiaurės Rytų
Temperatūra 23°C
Drėgmė 89%
Slėgis 1009 hPa
Matomumas 10 km arba daugiau
Išsisklaidę debesys ne aukštis 2000 ft
Mažai debesys ne aukštis 3000 ft, aukštai iškilę kamuoliniai debesys.
Su prošvaistėmis ne aukštis 8000 ft

METAR: SBCX 152000Z 03010KT 9999 SCT020 FEW030TCU BKN080 23/21 Q1009 RETS

Laikas: 17:34 (20:34 UTC)


TAF: trūkstamas

Orai ataskaitas ir orų prognozės (METAR, TAF).

turimą stotys yra geltonos ir raudonos taškus žemėlapyje.

Perkelti pele per norėdami pamatyti stoties vardą.

Tada spustelėkite, norėdami matyti oro stebėjimo ir prognozės.

Norėdami pakeisti žemėlapį: spustelėkite ant žalios mygtukų su juodo kryžiaus žemyn,; žalią mygtuką su brūkšneliu, jei norite nutolinti; arba žalių rodyklių gretimoms žemėlapius.


METAR-TAF: